Time;durP1;ratioP1;P1;durP2;ratioP2;P2;SDS_P1;SDS_P2;PMS_P1;PMS_P2;Temp;Humidity;BMP_temperature;BMP_pressure;BME280_temperature;BME280_humidity;BME280_pressure;Samples;Min_cycle;Max_cycle;Signal;HPM_P1;HPM_P2
2022/06/05 00:00:26;;;;;;;;;;;;;;;;;;5050381;28;897;-70
2022/06/05 00:02:55;;;;;;;;;;;;;;;;;;5050344;28;1068;-70
2022/06/05 00:05:25;;;;;;;;;;;;;;;;;;5050311;28;1911;-69
2022/06/05 00:07:53;;;;;;;;;;;;;;;;;;5050105;28;1055;-70
2022/06/05 00:10:21;;;;;;;;;;;;;;;;;;5050269;28;1068;-70
2022/06/05 00:12:51;;;;;;;;;;;;;;;;;;5050100;28;1012;-70
2022/06/05 00:15:17;;;;;;;;;;;;;;;;;;5048963;28;1278;-70
2022/06/05 00:17:43;;;;;;;;;;;;;;;;;;5050049;28;787;-70
2022/06/05 00:20:10;;;;;;;;;;;;;;;;;;5051145;28;1084;-70
2022/06/05 00:22:39;;;;;;;;;;;;;;;;;;5054199;28;1126;-71
2022/06/05 00:25:06;;;;;;;;;;;;;;;;;;5054055;28;1983;-70
2022/06/05 00:27:33;;;;;;;;;;;;;;;;;;5054184;28;824;-70
2022/06/05 00:30:02;;;;;;;;;;;;;;;;;;5053925;28;993;-70
2022/06/05 00:32:30;;;;;;;;;;;;;;;;;;5054515;28;1079;-70
2022/06/05 00:34:56;;;;;;;;;;;;;;;;;;5054061;28;964;-70
2022/06/05 00:37:24;;;;;;;;;;;;;;;;;;5053753;28;1450;-70
2022/06/05 00:39:54;;;;;;;;;;;;;;;;;;5053832;28;1060;-70
2022/06/05 00:42:22;;;;;;;;;;;;;;;;;;5053792;28;917;-71
2022/06/05 00:44:49;;;;;;;;;;;;;;;;;;5053294;28;1918;-69
2022/06/05 00:47:16;;;;;;;;;;;;;;;;;;5053355;28;1318;-70
2022/06/05 00:49:43;;;;;;;;;;;;;;;;;;5053382;28;1052;-70
2022/06/05 00:52:10;;;;;;;;;;;;;;;;;;5053304;28;1076;-70
2022/06/05 00:54:37;;;;;;;;;;;;;;;;;;5053455;28;1517;-71
2022/06/05 00:57:06;;;;;;;;;;;;;;;;;;5053671;28;1466;-70
2022/06/05 00:59:32;;;;;;;;;;;;;;;;;;5053062;28;1241;-70
2022/06/05 01:01:58;;;;;;;;;;;;;;;;;;5053117;28;969;-70
2022/06/05 01:04:24;;;;;;;;;;;;;;;;;;5052033;28;1985;-70
2022/06/05 01:06:52;;;;;;;;;;;;;;;;;;5052809;28;1313;-70
2022/06/05 01:09:18;;;;;;;;;;;;;;;;;;5052831;28;850;-69
2022/06/05 01:11:47;;;;;;;;;;;;;;;;;;5053288;28;1116;-70
2022/06/05 01:14:17;;;;;;;;;;;;;;;;;;5053278;28;1067;-70
2022/06/05 01:16:45;;;;;;;;;;;;;;;;;;5058649;28;1741;-70
2022/06/05 01:19:16;;;;;;;;;;;;;;;;;;5070515;28;933;-70
2022/06/05 01:21:55;;;;;;;;;;;;;;;;;;5070149;28;1122;-70
2022/06/05 01:24:31;;;;;;;;;;;;;;;;;;5070140;28;1914;-71
2022/06/05 01:27:00;;;;;;;;;;;;;;;;;;5066925;28;1375;-72
2022/06/05 01:29:28;;;;;;;;;;;;;;;;;;5049902;28;1206;-71
2022/06/05 01:31:55;;;;;;;;;;;;;;;;;;5052662;28;799;-71
2022/06/05 01:34:22;;;;;;;;;;;;;;;;;;5052984;28;885;-71
2022/06/05 01:36:50;;;;;;;;;;;;;;;;;;5052594;28;1326;-71
2022/06/05 01:39:18;;;;;;;;;;;;;;;;;;5051654;28;1158;-71
2022/06/05 01:41:45;;;;;;;;;;;;;;;;;;5052483;28;1009;-71
2022/06/05 01:44:14;;;;;;;;;;;;;;;;;;5052376;28;1392;-71
2022/06/05 01:46:40;;;;;;;;;;;;;;;;;;5052260;28;1910;-71
2022/06/05 01:49:09;;;;;;;;;;;;;;;;;;5052173;28;1286;-71
2022/06/05 01:51:36;;;;;;;;;;;;;;;;;;5058358;28;1250;-71
2022/06/05 01:54:04;;;;;;;;;;;;;;;;;;5056065;28;1456;-71
2022/06/05 01:56:31;;;;;;;;;;;;;;;;;;5058336;28;1397;-71
2022/06/05 01:59:00;;;;;;;;;;;;;;;;;;5052011;28;1060;-71
2022/06/05 02:01:28;;;;;;;;;;;;;;;;;;5052078;28;1120;-71
2022/06/05 02:03:55;;;;;;;;;;;;;;;;;;5051948;28;1336;-71
2022/06/05 02:06:22;;;;;;;;;;;;;;;;;;5051444;28;1922;-71
2022/06/05 02:08:49;;;;;;;;;;;;;;;;;;5052249;28;1067;-71
2022/06/05 02:11:16;;;;;;;;;;;;;;;;;;5052112;28;1130;-71
2022/06/05 02:13:42;;;;;;;;;;;;;;;;;;5052042;28;937;-70
2022/06/05 02:16:08;;;;;;;;;;;;;;;;;;5055008;28;1515;-70
2022/06/05 02:18:36;;;;;;;;;;;;;;;;;;5061335;28;1353;-71
2022/06/05 02:21:03;;;;;;;;;;;;;;;;;;5062539;28;1335;-71
2022/06/05 02:23:29;;;;;;;;;;;;;;;;;;5062087;28;1307;-70
2022/06/05 02:25:56;;;;;;;;;;;;;;;;;;5061574;28;1979;-70
2022/06/05 02:28:22;;;;;;;;;;;;;;;;;;5058543;28;1343;-70
2022/06/05 02:30:50;;;;;;;;;;;;;;;;;;5062116;28;1401;-70
2022/06/05 02:33:18;;;;;;;;;;;;;;;;;;5061466;28;1331;-71
2022/06/05 02:35:47;;;;;;;;;;;;;;;;;;5059952;28;1356;-70
2022/06/05 02:38:17;;;;;;;;;;;;;;;;;;5061069;28;1279;-71
2022/06/05 02:40:45;;;;;;;;;;;;;;;;;;5062133;28;1268;-71
2022/06/05 02:43:14;;;;;;;;;;;;;;;;;;5053810;28;1331;-70
2022/06/05 02:45:42;;;;;;;;;;;;;;;;;;5049851;28;1922;-70
2022/06/05 02:48:09;;;;;;;;;;;;;;;;;;5061687;28;1195;-70
2022/06/05 02:50:36;;;;;;;;;;;;;;;;;;5071316;28;1175;-70
2022/06/05 02:53:05;;;;;;;;;;;;;;;;;;5071341;28;1067;-71
2022/06/05 02:55:31;;;;;;;;;;;;;;;;;;5071203;28;1302;-71
2022/06/05 02:57:57;;;;;;;;;;;;;;;;;;5071201;28;1067;-70
2022/06/05 03:00:24;;;;;;;;;;;;;;;;;;5069651;28;1466;-70
2022/06/05 03:05:35;;;;;;;;;;;;;;;;;;5050942;28;1976;-70
2022/06/05 03:08:04;;;;;;;;;;;;;;;;;;5051093;28;1249;-73
2022/06/05 03:10:30;;;;;;;;;;;;;;;;;;5050951;28;1072;-70
2022/06/05 03:12:56;;;;;;;;;;;;;;;;;;5051081;28;937;-72
2022/06/05 03:15:22;;;;;;;;;;;;;;;;;;5050895;28;1322;-70
2022/06/05 03:17:49;;;;;;;;;;;;;;;;;;5050865;28;1123;-69
2022/06/05 03:20:15;;;;;;;;;;;;;;;;;;5049666;28;1167;-72
2022/06/05 03:22:42;;;;;;;;;;;;;;;;;;5051451;28;1055;-70
2022/06/05 03:25:10;;;;;;;;;;;;;;;;;;5051150;28;1967;-72
2022/06/05 03:27:36;;;;;;;;;;;;;;;;;;5061179;28;1293;-72
2022/06/05 03:30:03;;;;;;;;;;;;;;;;;;5070848;28;985;-72
2022/06/05 03:32:30;;;;;;;;;;;;;;;;;;5070761;28;1311;-72
2022/06/05 03:34:57;;;;;;;;;;;;;;;;;;5071074;28;1072;-71
2022/06/05 03:37:23;;;;;;;;;;;;;;;;;;5070470;28;1416;-72
2022/06/05 03:39:49;;;;;;;;;;;;;;;;;;5071075;28;969;-72
2022/06/05 03:42:16;;;;;;;;;;;;;;;;;;5071066;28;677;-72
2022/06/05 03:44:43;;;;;;;;;;;;;;;;;;5069574;28;885;-71
2022/06/05 03:47:09;;;;;;;;;;;;;;;;;;5070532;28;1925;-71
2022/06/05 03:49:36;;;;;;;;;;;;;;;;;;5070589;28;1000;-71
2022/06/05 03:52:02;;;;;;;;;;;;;;;;;;5070577;28;1115;-71
2022/06/05 03:54:29;;;;;;;;;;;;;;;;;;5070581;28;960;-72
2022/06/05 03:56:55;;;;;;;;;;;;;;;;;;5073790;28;1400;-71
2022/06/05 03:59:22;;;;;;;;;;;;;;;;;;5074553;28;1110;-71
2022/06/05 04:01:49;;;;;;;;;;;;;;;;;;5073563;28;1455;-71
2022/06/05 04:04:15;;;;;;;;;;;;;;;;;;5074542;28;903;-72
2022/06/05 04:06:41;;;;;;;;;;;;;;;;;;5074109;28;1993;-72
2022/06/05 04:09:08;;;;;;;;;;;;;;;;;;5074529;28;1118;-72
2022/06/05 04:11:35;;;;;;;;;;;;;;;;;;5074336;28;1250;-71
2022/06/05 04:14:01;;;;;;;;;;;;;;;;;;5074281;28;1063;-72
2022/06/05 04:16:30;;;;;;;;;;;;;;;;;;5073889;28;1313;-71
2022/06/05 04:18:56;;;;;;;;;;;;;;;;;;5073118;28;1047;-71
2022/06/05 04:21:23;;;;;;;;;;;;;;;;;;5074214;28;942;-71
2022/06/05 04:23:49;;;;;;;;;;;;;;;;;;5074045;28;785;-71
2022/06/05 04:26:16;;;;;;;;;;;;;;;;;;5073694;28;1971;-71
2022/06/05 04:28:42;;;;;;;;;;;;;;;;;;5072835;28;1715;-71
2022/06/05 04:31:19;;;;;;;;;;;;;;;;;;5072272;28;1493;-71
2022/06/05 04:33:47;;;;;;;;;;;;;;;;;;5067299;28;1455;-72
2022/06/05 04:36:13;;;;;;;;;;;;;;;;;;5070850;28;1517;-72
2022/06/05 04:38:39;;;;;;;;;;;;;;;;;;5071321;28;1056;-72
2022/06/05 04:41:06;;;;;;;;;;;;;;;;;;5071354;28;1466;-71
2022/06/05 04:43:32;;;;;;;;;;;;;;;;;;5056421;28;1071;-71
2022/06/05 04:45:58;;;;;;;;;;;;;;;;;;5050942;28;1927;-71
2022/06/05 04:48:24;;;;;;;;;;;;;;;;;;5061631;28;1441;-72
2022/06/05 04:50:52;;;;;;;;;;;;;;;;;;5071115;28;1117;-72
2022/06/05 04:53:19;;;;;;;;;;;;;;;;;;5058666;28;1355;-71
2022/06/05 04:55:45;;;;;;;;;;;;;;;;;;5054744;28;1364;-72
2022/06/05 04:58:11;;;;;;;;;;;;;;;;;;5058246;28;1441;-73
2022/06/05 05:00:37;;;;;;;;;;;;;;;;;;5066039;28;1380;-72
2022/06/05 05:03:04;;;;;;;;;;;;;;;;;;5069251;28;1165;-71
2022/06/05 05:05:30;;;;;;;;;;;;;;;;;;5069249;28;1914;-71
2022/06/05 05:07:58;;;;;;;;;;;;;;;;;;5070034;28;995;-72
2022/06/05 05:10:24;;;;;;;;;;;;;;;;;;5070820;28;1148;-71
2022/06/05 05:12:51;;;;;;;;;;;;;;;;;;5068413;28;1390;-72
2022/06/05 05:15:17;;;;;;;;;;;;;;;;;;5071108;28;1326;-71
2022/06/05 05:17:43;;;;;;;;;;;;;;;;;;5069594;28;1156;-70
2022/06/05 05:20:10;;;;;;;;;;;;;;;;;;5067707;28;1417;-70
2022/06/05 05:22:38;;;;;;;;;;;;;;;;;;5065223;28;1110;-70
2022/06/05 05:25:06;;;;;;;;;;;;;;;;;;5067505;28;1403;-70
2022/06/05 05:27:33;;;;;;;;;;;;;;;;;;5063689;28;1981;-70
2022/06/05 05:29:59;;;;;;;;;;;;;;;;;;5069276;28;1380;-70
2022/06/05 05:32:25;;;;;;;;;;;;;;;;;;5072825;28;1532;-71
2022/06/05 05:34:51;;;;;;;;;;;;;;;;;;5072382;28;1432;-71
2022/06/05 05:37:18;;;;;;;;;;;;;;;;;;5069901;28;1427;-71
2022/06/05 05:42:30;;;;;;;;;;;;;;;;;;5067609;28;1537;-71
2022/06/05 05:44:57;;;;;;;;;;;;;;;;;;5069388;28;1448;-71
2022/06/05 05:47:24;;;;;;;;;;;;;;;;;;5068704;28;1919;-70
2022/06/05 05:49:51;;;;;;;;;;;;;;;;;;5070287;28;1113;-71
2022/06/05 05:52:17;;;;;;;;;;;;;;;;;;5067986;28;1514;-70
2022/06/05 05:54:43;;;;;;;;;;;;;;;;;;5070013;28;1113;-71
2022/06/05 05:57:10;;;;;;;;;;;;;;;;;;5069341;28;1352;-71
2022/06/05 05:59:37;;;;;;;;;;;;;;;;;;5062500;28;1441;-70
2022/06/05 06:02:06;;;;;;;;;;;;;;;;;;5067892;28;1487;-70
2022/06/05 06:04:32;;;;;;;;;;;;;;;;;;5069541;28;1118;-69
2022/06/05 06:06:58;;;;;;;;;;;;;;;;;;5068796;28;1912;-70
2022/06/05 06:09:24;;;;;;;;;;;;;;;;;;5062080;28;1557;-71
2022/06/05 06:11:50;;;;;;;;;;;;;;;;;;5065339;28;1164;-70
2022/06/05 06:14:17;;;;;;;;;;;;;;;;;;5068296;28;995;-72
2022/06/05 06:16:44;;;;;;;;;;;;;;;;;;5066327;28;1518;-71
2022/06/05 06:19:10;;;;;;;;;;;;;;;;;;5068407;28;1544;-71
2022/06/05 06:21:36;;;;;;;;;;;;;;;;;;5066654;28;1146;-70
2022/06/05 06:24:03;;;;;;;;;;;;;;;;;;5071631;28;1138;-70
2022/06/05 06:26:29;;;;;;;;;;;;;;;;;;5071314;28;1975;-71
2022/06/05 06:28:55;;;;;;;;;;;;;;;;;;5069892;28;1420;-71
2022/06/05 06:31:21;;;;;;;;;;;;;;;;;;5071563;28;1157;-71
2022/06/05 06:33:49;;;;;;;;;;;;;;;;;;5071564;28;893;-71
2022/06/05 06:36:16;;;;;;;;;;;;;;;;;;5066172;28;1435;-71
2022/06/05 06:38:42;;;;;;;;;;;;;;;;;;5071519;28;1135;-71
2022/06/05 06:41:10;;;;;;;;;;;;;;;;;;5071554;28;847;-71
2022/06/05 06:43:37;;;;;;;;;;;;;;;;;;5071600;28;1071;-71
2022/06/05 06:46:04;;;;;;;;;;;;;;;;;;5071506;28;1910;-72
2022/06/05 06:48:30;;;;;;;;;;;;;;;;;;5070000;28;1048;-72
2022/06/05 06:50:58;;;;;;;;;;;;;;;;;;5055732;28;1470;-71
2022/06/05 06:53:24;;;;;;;;;;;;;;;;;;5064298;28;1441;-71
2022/06/05 06:55:51;;;;;;;;;;;;;;;;;;5069463;28;1467;-71
2022/06/05 06:58:17;;;;;;;;;;;;;;;;;;5070262;28;1414;-72
2022/06/05 07:00:43;;;;;;;;;;;;;;;;;;5071059;28;1235;-70
2022/06/05 07:03:10;;;;;;;;;;;;;;;;;;5069889;28;1114;-70
2022/06/05 07:05:36;;;;;;;;;;;;;;;;;;5069624;28;1344;-71
2022/06/05 07:08:04;;;;;;;;;;;;;;;;;;5069601;28;1978;-71
2022/06/05 07:10:30;;;;;;;;;;;;;;;;;;5064060;28;1425;-71
2022/06/05 07:12:56;;;;;;;;;;;;;;;;;;5068905;28;1499;-72
2022/06/05 07:15:22;;;;;;;;;;;;;;;;;;5070978;28;1432;-73
2022/06/05 07:17:48;;;;;;;;;;;;;;;;;;5070621;28;1001;-72
2022/06/05 07:20:15;;;;;;;;;;;;;;;;;;5070654;28;1072;-71
2022/06/05 07:22:41;;;;;;;;;;;;;;;;;;5070785;28;1004;-72
2022/06/05 07:25:09;;;;;;;;;;;;;;;;;;5069166;28;1320;-71
2022/06/05 07:27:35;;;;;;;;;;;;;;;;;;5066076;28;1914;-72
2022/06/05 07:30:01;;;;;;;;;;;;;;;;;;5070485;28;1786;-71
2022/06/05 07:32:27;;;;;;;;;;;;;;;;;;5073206;28;1445;-72
2022/06/05 07:34:54;;;;;;;;;;;;;;;;;;5069459;28;1217;-72
2022/06/05 07:37:20;;;;;;;;;;;;;;;;;;5064677;28;1439;-72
2022/06/05 07:39:46;;;;;;;;;;;;;;;;;;5070081;28;1412;-72
2022/06/05 07:42:13;;;;;;;;;;;;;;;;;;5070393;28;1285;-71
2022/06/05 07:44:40;;;;;;;;;;;;;;;;;;5070115;28;1457;-71
2022/06/05 07:47:06;;;;;;;;;;;;;;;;;;5070190;28;1922;-72
2022/06/05 07:49:32;;;;;;;;;;;;;;;;;;5068832;28;1401;-71
2022/06/05 07:54:43;;;;;;;;;;;;;;;;;;5069893;28;1846;-71
2022/06/05 07:57:09;;;;;;;;;;;;;;;;;;5070106;28;1372;-71
2022/06/05 07:59:38;;;;;;;;;;;;;;;;;;5069586;28;1996;-71
2022/06/05 08:02:05;;;;;;;;;;;;;;;;;;5070215;28;1142;-71
2022/06/05 08:04:32;;;;;;;;;;;;;;;;;;5061642;28;1486;-72
2022/06/05 08:06:59;;;;;;;;;;;;;;;;;;5067747;28;1910;-71
2022/06/05 08:09:25;;;;;;;;;;;;;;;;;;5067455;28;1448;-71
2022/06/05 08:11:51;;;;;;;;;;;;;;;;;;5066455;28;1426;-72
2022/06/05 08:14:18;;;;;;;;;;;;;;;;;;5065563;28;1640;-72
2022/06/05 08:16:46;;;;;;;;;;;;;;;;;;5068802;28;1393;-72
2022/06/05 08:19:12;;;;;;;;;;;;;;;;;;5063414;28;1431;-72
2022/06/05 08:21:38;;;;;;;;;;;;;;;;;;5056687;28;1149;-72
2022/06/05 08:24:05;;;;;;;;;;;;;;;;;;5065330;28;1436;-72
2022/06/05 08:26:31;;;;;;;;;;;;;;;;;;5068718;28;1409;-71
2022/06/05 08:28:57;;;;;;;;;;;;;;;;;;5067856;28;1696;-72
2022/06/05 08:31:24;;;;;;;;;;;;;;;;;;5070254;28;969;-72
2022/06/05 08:33:51;;;;;;;;;;;;;;;;;;5068054;28;1453;-73
2022/06/05 08:36:17;;;;;;;;;;;;;;;;;;5068659;28;1437;-73
2022/06/05 08:41:33;;;;;;;;;;;;;;;;;;5044043;28;1503;-71
2022/06/05 08:44:10;;;;;;;;;;;;;;;;;;5073500;28;1125;-72
2022/06/05 08:46:37;;;;;;;;;;;;;;;;;;5073310;28;1414;-71
2022/06/05 08:49:06;;;;;;;;;;;;;;;;;;5073483;28;1119;-72
2022/06/05 08:51:35;;;;;;;;;;;;;;;;;;5072316;28;1244;-72
2022/06/05 08:54:02;;;;;;;;;;;;;;;;;;5071196;28;1437;-72
2022/06/05 08:56:31;;;;;;;;;;;;;;;;;;5066904;28;1337;-72
2022/06/05 08:58:58;;;;;;;;;;;;;;;;;;5062369;28;1598;-72
2022/06/05 09:01:27;;;;;;;;;;;;;;;;;;5053328;28;1040;-73
2022/06/05 09:03:59;;;;;;;;;;;;;;;;;;5053203;28;922;-72
2022/06/05 09:06:29;;;;;;;;;;;;;;;;;;5052922;28;1399;-72
2022/06/05 09:08:56;;;;;;;;;;;;;;;;;;5052605;28;1979;-72
2022/06/05 09:11:24;;;;;;;;;;;;;;;;;;5072748;28;1064;-73
2022/06/05 09:13:52;;;;;;;;;;;;;;;;;;5072879;28;1137;-72
2022/06/05 09:16:20;;;;;;;;;;;;;;;;;;5072687;28;1541;-72
2022/06/05 09:18:47;;;;;;;;;;;;;;;;;;5071712;28;1352;-72
2022/06/05 09:21:18;;;;;;;;;;;;;;;;;;5052742;28;1059;-73
2022/06/05 09:23:48;;;;;;;;;;;;;;;;;;5052991;28;999;-73
2022/06/05 09:26:16;;;;;;;;;;;;;;;;;;5051466;28;1636;-72
2022/06/05 09:28:52;;;;;;;;;;;;;;;;;;5056153;28;1977;-73
2022/06/05 09:31:24;;;;;;;;;;;;;;;;;;5065550;28;1173;-72
2022/06/05 09:33:51;;;;;;;;;;;;;;;;;;5071890;28;1924;-72
2022/06/05 09:36:17;;;;;;;;;;;;;;;;;;5071254;28;1466;-73
2022/06/05 09:38:44;;;;;;;;;;;;;;;;;;5072776;28;1060;-72
2022/06/05 09:41:20;;;;;;;;;;;;;;;;;;5071482;28;1115;-73
2022/06/05 09:44:04;;;;;;;;;;;;;;;;;;5069817;28;1281;-72
2022/06/05 09:46:45;;;;;;;;;;;;;;;;;;5061801;28;2073;-72
2022/06/05 09:49:13;;;;;;;;;;;;;;;;;;5062097;28;1930;-72
2022/06/05 09:51:40;;;;;;;;;;;;;;;;;;5061421;28;1258;-72
2022/06/05 09:54:07;;;;;;;;;;;;;;;;;;5060992;28;1246;-72
2022/06/05 09:59:22;;;;;;;;;;;;;;;;;;5052099;28;1185;-72
2022/06/05 10:01:49;;;;;;;;;;;;;;;;;;5052143;28;1141;-73
2022/06/05 10:04:16;;;;;;;;;;;;;;;;;;5052247;28;1139;-72
2022/06/05 10:06:42;;;;;;;;;;;;;;;;;;5052167;28;1320;-73
2022/06/05 10:09:11;;;;;;;;;;;;;;;;;;5052089;28;1918;-73
2022/06/05 10:11:42;;;;;;;;;;;;;;;;;;5050930;28;1335;-73
2022/06/05 10:14:15;;;;;;;;;;;;;;;;;;5052018;28;1056;-73
2022/06/05 10:16:42;;;;;;;;;;;;;;;;;;5051850;28;1434;-73
2022/06/05 10:19:17;;;;;;;;;;;;;;;;;;5051843;28;1103;-73
2022/06/05 10:21:44;;;;;;;;;;;;;;;;;;5051916;28;1080;-73
2022/06/05 10:24:14;;;;;;;;;;;;;;;;;;5051684;28;1127;-73
2022/06/05 10:26:46;;;;;;;;;;;;;;;;;;5051701;28;1361;-73
2022/06/05 10:29:17;;;;;;;;;;;;;;;;;;5051650;28;1926;-73
2022/06/05 10:31:47;;;;;;;;;;;;;;;;;;5051699;28;1060;-73
2022/06/05 10:34:17;;;;;;;;;;;;;;;;;;5050206;28;1219;-73
2022/06/05 10:36:46;;;;;;;;;;;;;;;;;;5051303;28;1315;-73
2022/06/05 10:39:13;;;;;;;;;;;;;;;;;;5051482;28;1060;-73
2022/06/05 10:41:40;;;;;;;;;;;;;;;;;;5051632;28;1115;-73
2022/06/05 10:44:21;;;;;;;;;;;;;;;;;;5050061;28;1232;-73
2022/06/05 10:46:53;;;;;;;;;;;;;;;;;;5051026;28;1401;-73
2022/06/05 10:49:21;;;;;;;;;;;;;;;;;;5058681;28;1914;-73
2022/06/05 10:51:49;;;;;;;;;;;;;;;;;;5066723;28;1418;-73
2022/06/05 10:54:28;;;;;;;;;;;;;;;;;;5063454;28;1141;-73
2022/06/05 10:56:55;;;;;;;;;;;;;;;;;;5069861;28;1353;-73
2022/06/05 10:59:27;;;;;;;;;;;;;;;;;;5071297;28;1107;-74
2022/06/05 11:02:01;;;;;;;;;;;;;;;;;;5061544;28;1482;-73
2022/06/05 11:04:33;;;;;;;;;;;;;;;;;;5059067;28;1467;-73
2022/06/05 11:07:00;;;;;;;;;;;;;;;;;;5063441;28;1696;-72
2022/06/05 11:09:28;;;;;;;;;;;;;;;;;;5069446;28;1984;-73
2022/06/05 11:14:41;;;;;;;;;;;;;;;;;;5070045;28;1414;-73
2022/06/05 11:17:12;;;;;;;;;;;;;;;;;;5070360;28;1453;-72
2022/06/05 11:19:39;;;;;;;;;;;;;;;;;;5067747;28;1402;-73
2022/06/05 11:22:07;;;;;;;;;;;;;;;;;;5069455;28;1393;-72
2022/06/05 11:24:34;;;;;;;;;;;;;;;;;;5067424;28;1518;-73
2022/06/05 11:27:05;;;;;;;;;;;;;;;;;;5070402;28;1487;-74
2022/06/05 11:29:33;;;;;;;;;;;;;;;;;;5070594;28;1964;-74
2022/06/05 11:32:07;;;;;;;;;;;;;;;;;;5070772;28;1127;-73
2022/06/05 11:34:35;;;;;;;;;;;;;;;;;;5070646;28;1067;-73
2022/06/05 11:37:11;;;;;;;;;;;;;;;;;;5066644;28;1424;-73
2022/06/05 11:39:39;;;;;;;;;;;;;;;;;;5066578;28;1415;-73
2022/06/05 11:42:10;;;;;;;;;;;;;;;;;;5070469;28;1133;-73
2022/06/05 11:44:37;;;;;;;;;;;;;;;;;;5070692;28;918;-73
2022/06/05 11:47:06;;;;;;;;;;;;;;;;;;5070462;28;1270;-73
2022/06/05 11:49:37;;;;;;;;;;;;;;;;;;5070694;28;1918;-73
2022/06/05 11:52:04;;;;;;;;;;;;;;;;;;5066834;28;1525;-73
2022/06/05 11:54:31;;;;;;;;;;;;;;;;;;5070823;28;1129;-73
2022/06/05 11:56:59;;;;;;;;;;;;;;;;;;5069467;28;1420;-73
2022/06/05 11:59:28;;;;;;;;;;;;;;;;;;5070083;28;1384;-73
2022/06/05 12:01:55;;;;;;;;;;;;;;;;;;5070620;28;1207;-73
2022/06/05 12:04:25;;;;;;;;;;;;;;;;;;5069197;28;1312;-73
2022/06/05 12:06:52;;;;;;;;;;;;;;;;;;5068828;28;1465;-73
2022/06/05 12:09:18;;;;;;;;;;;;;;;;;;5069159;28;1925;-73
2022/06/05 12:11:46;;;;;;;;;;;;;;;;;;5062053;28;1474;-73
2022/06/05 12:14:15;;;;;;;;;;;;;;;;;;5068590;28;1409;-73
2022/06/05 12:16:43;;;;;;;;;;;;;;;;;;5071599;28;1404;-73
2022/06/05 12:19:12;;;;;;;;;;;;;;;;;;5064695;28;1428;-73
2022/06/05 12:21:44;;;;;;;;;;;;;;;;;;5070748;28;1390;-74
2022/06/05 12:24:11;;;;;;;;;;;;;;;;;;5070983;28;1240;-73
2022/06/05 12:26:39;;;;;;;;;;;;;;;;;;5073508;28;1404;-74
2022/06/05 12:29:06;;;;;;;;;;;;;;;;;;5073542;28;1910;-74
2022/06/05 12:31:35;;;;;;;;;;;;;;;;;;5073464;28;1059;-74
2022/06/05 12:34:02;;;;;;;;;;;;;;;;;;5073418;28;937;-74
2022/06/05 12:36:29;;;;;;;;;;;;;;;;;;5073131;28;1416;-74
2022/06/05 12:38:57;;;;;;;;;;;;;;;;;;5073150;28;1017;-74
2022/06/05 12:41:24;;;;;;;;;;;;;;;;;;5073383;28;1067;-73
2022/06/05 12:43:57;;;;;;;;;;;;;;;;;;5073240;28;1119;-74
2022/06/05 12:46:26;;;;;;;;;;;;;;;;;;5072990;28;1325;-74
2022/06/05 12:48:58;;;;;;;;;;;;;;;;;;5061000;28;2241;-73
2022/06/05 12:51:24;;;;;;;;;;;;;;;;;;5068333;28;1337;-74
2022/06/05 12:53:52;;;;;;;;;;;;;;;;;;5069527;28;1700;-75
2022/06/05 12:56:31;;;;;;;;;;;;;;;;;;5072864;28;1435;-74
2022/06/05 12:59:00;;;;;;;;;;;;;;;;;;5073617;28;1068;-74
2022/06/05 13:01:27;;;;;;;;;;;;;;;;;;5073312;28;1095;-74
2022/06/05 13:03:55;;;;;;;;;;;;;;;;;;5073230;28;1037;-74
2022/06/05 13:06:27;;;;;;;;;;;;;;;;;;5073191;28;1339;-74
2022/06/05 13:08:55;;;;;;;;;;;;;;;;;;5071506;28;1977;-75
2022/06/05 13:11:23;;;;;;;;;;;;;;;;;;5066329;28;1276;-75
2022/06/05 13:13:52;;;;;;;;;;;;;;;;;;5073403;28;1208;-75
2022/06/05 13:16:23;;;;;;;;;;;;;;;;;;5073042;28;1274;-75
2022/06/05 13:18:53;;;;;;;;;;;;;;;;;;5066549;28;1543;-75
2022/06/05 13:21:20;;;;;;;;;;;;;;;;;;5073325;28;1121;-74
2022/06/05 13:23:49;;;;;;;;;;;;;;;;;;5072985;28;794;-72
2022/06/05 13:26:16;;;;;;;;;;;;;;;;;;5073019;28;1337;-73
2022/06/05 13:28:45;;;;;;;;;;;;;;;;;;5068694;28;1971;-74
2022/06/05 13:31:17;;;;;;;;;;;;;;;;;;5071439;28;1467;-73
2022/06/05 13:33:44;;;;;;;;;;;;;;;;;;5073070;28;1066;-73
2022/06/05 13:36:15;;;;;;;;;;;;;;;;;;5068193;28;1615;-73
2022/06/05 13:38:44;;;;;;;;;;;;;;;;;;5059822;28;1262;-73
2022/06/05 13:41:12;;;;;;;;;;;;;;;;;;5062432;28;1365;-73
2022/06/05 13:43:40;;;;;;;;;;;;;;;;;;5070793;28;1469;-73
2022/06/05 13:46:12;;;;;;;;;;;;;;;;;;5069698;28;1749;-73
2022/06/05 13:48:40;;;;;;;;;;;;;;;;;;5067765;28;1926;-73
2022/06/05 13:51:08;;;;;;;;;;;;;;;;;;5065510;28;1404;-73
2022/06/05 13:53:36;;;;;;;;;;;;;;;;;;5071307;28;1193;-73
2022/06/05 13:56:05;;;;;;;;;;;;;;;;;;5070852;28;1636;-73
2022/06/05 13:58:33;;;;;;;;;;;;;;;;;;5071008;28;1138;-74
2022/06/05 14:01:06;;;;;;;;;;;;;;;;;;5064340;28;1438;-74
2022/06/05 14:03:35;;;;;;;;;;;;;;;;;;5071690;28;1437;-74
2022/06/05 14:06:04;;;;;;;;;;;;;;;;;;5070216;28;1387;-74
2022/06/05 14:08:35;;;;;;;;;;;;;;;;;;5067911;28;1910;-74
2022/06/05 14:11:02;;;;;;;;;;;;;;;;;;5065807;28;1406;-74
2022/06/05 14:13:28;;;;;;;;;;;;;;;;;;5072443;28;1149;-73
2022/06/05 14:15:55;;;;;;;;;;;;;;;;;;5070911;28;1507;-73
2022/06/05 14:18:23;;;;;;;;;;;;;;;;;;5070270;28;1282;-73
2022/06/05 14:20:49;;;;;;;;;;;;;;;;;;5071905;28;1056;-73
2022/06/05 14:23:20;;;;;;;;;;;;;;;;;;5059065;28;1434;-74
2022/06/05 14:25:47;;;;;;;;;;;;;;;;;;5060385;28;1491;-74
2022/06/05 14:28:15;;;;;;;;;;;;;;;;;;5068245;28;1407;-73
2022/06/05 14:30:43;;;;;;;;;;;;;;;;;;5065630;28;1918;-74
2022/06/05 14:33:14;;;;;;;;;;;;;;;;;;5071142;28;1361;-74
2022/06/05 14:35:44;;;;;;;;;;;;;;;;;;5071836;28;1451;-74
2022/06/05 14:38:16;;;;;;;;;;;;;;;;;;5071519;28;1067;-74
2022/06/05 14:40:47;;;;;;;;;;;;;;;;;;5069190;28;1368;-73
2022/06/05 14:43:14;;;;;;;;;;;;;;;;;;5063277;28;1141;-74
2022/06/05 14:45:41;;;;;;;;;;;;;;;;;;5067839;28;1551;-74
2022/06/05 14:48:13;;;;;;;;;;;;;;;;;;5070137;28;1249;-74
2022/06/05 14:50:40;;;;;;;;;;;;;;;;;;5067430;28;1914;-74
2022/06/05 14:53:08;;;;;;;;;;;;;;;;;;5071071;28;1177;-74
2022/06/05 14:58:25;;;;;;;;;;;;;;;;;;5062326;28;1142;-74
2022/06/05 15:00:53;;;;;;;;;;;;;;;;;;5071264;28;944;-75
2022/06/05 15:03:22;;;;;;;;;;;;;;;;;;5066638;28;1420;-75
2022/06/05 15:05:50;;;;;;;;;;;;;;;;;;5070977;28;1372;-75
2022/06/05 15:08:17;;;;;;;;;;;;;;;;;;5069670;28;873;-75
2022/06/05 15:10:44;;;;;;;;;;;;;;;;;;5066133;28;1983;-75
2022/06/05 15:13:12;;;;;;;;;;;;;;;;;;5070099;28;1448;-74
2022/06/05 15:15:41;;;;;;;;;;;;;;;;;;5065441;28;1564;-75
2022/06/05 15:18:07;;;;;;;;;;;;;;;;;;5065522;28;1475;-75
2022/06/05 15:20:40;;;;;;;;;;;;;;;;;;5071072;28;1240;-76
2022/06/05 15:23:08;;;;;;;;;;;;;;;;;;5069556;28;1264;-75
2022/06/05 15:25:35;;;;;;;;;;;;;;;;;;5070768;28;1401;-75
2022/06/05 15:28:03;;;;;;;;;;;;;;;;;;5065708;28;1443;-76
2022/06/05 15:30:32;;;;;;;;;;;;;;;;;;5070640;28;1918;-75
2022/06/05 15:33:02;;;;;;;;;;;;;;;;;;5070846;28;869;-76
2022/06/05 15:35:31;;;;;;;;;;;;;;;;;;5066202;28;1637;-76
2022/06/05 15:38:15;;;;;;;;;;;;;;;;;;5070185;28;1376;-75
2022/06/05 15:40:43;;;;;;;;;;;;;;;;;;5059335;28;1460;-75
2022/06/05 15:43:13;;;;;;;;;;;;;;;;;;5067495;28;1213;-75
2022/06/05 15:45:42;;;;;;;;;;;;;;;;;;5067367;28;1408;-75
2022/06/05 15:48:18;;;;;;;;;;;;;;;;;;5068095;28;1434;-75
2022/06/05 15:50:46;;;;;;;;;;;;;;;;;;5066410;28;1989;-76
2022/06/05 15:53:24;;;;;;;;;;;;;;;;;;5071295;28;1283;-75
2022/06/05 15:55:53;;;;;;;;;;;;;;;;;;5071494;28;1483;-75
2022/06/05 15:58:23;;;;;;;;;;;;;;;;;;5070825;28;1394;-75
2022/06/05 16:00:59;;;;;;;;;;;;;;;;;;5071031;28;1334;-75
2022/06/05 16:03:27;;;;;;;;;;;;;;;;;;5071258;28;1084;-75
2022/06/05 16:05:53;;;;;;;;;;;;;;;;;;5071739;28;1437;-75
2022/06/05 16:08:21;;;;;;;;;;;;;;;;;;5070705;28;1509;-75
2022/06/05 16:10:49;;;;;;;;;;;;;;;;;;5070614;28;1922;-75
2022/06/05 16:13:16;;;;;;;;;;;;;;;;;;5068609;28;1380;-74
2022/06/05 16:15:43;;;;;;;;;;;;;;;;;;5070706;28;1540;-75
2022/06/05 16:18:12;;;;;;;;;;;;;;;;;;5063662;28;1178;-76
2022/06/05 16:20:47;;;;;;;;;;;;;;;;;;5072856;28;1214;-76
2022/06/05 16:23:20;;;;;;;;;;;;;;;;;;5074030;28;1483;-77
2022/06/05 16:25:47;;;;;;;;;;;;;;;;;;5071247;28;1474;-76
2022/06/05 16:28:15;;;;;;;;;;;;;;;;;;5057009;28;1412;-76
2022/06/05 16:30:42;;;;;;;;;;;;;;;;;;5065291;28;1918;-77
2022/06/05 16:33:16;;;;;;;;;;;;;;;;;;5073186;28;1244;-76
2022/06/05 16:38:29;;;;;;;;;;;;;;;;;;5073064;28;989;-76
2022/06/05 16:40:55;;;;;;;;;;;;;;;;;;5072036;28;826;-76
2022/06/05 16:43:22;;;;;;;;;;;;;;;;;;5072646;28;1150;-75
2022/06/05 16:45:53;;;;;;;;;;;;;;;;;;5071277;28;1357;-75
2022/06/05 16:48:20;;;;;;;;;;;;;;;;;;5071058;28;815;-75
2022/06/05 16:50:54;;;;;;;;;;;;;;;;;;5070925;28;1980;-75
2022/06/05 16:53:28;;;;;;;;;;;;;;;;;;5065052;28;1181;-75
2022/06/05 16:56:09;;;;;;;;;;;;;;;;;;5070864;28;1764;-75
2022/06/05 16:58:38;;;;;;;;;;;;;;;;;;5067700;28;1285;-75
2022/06/05 17:01:05;;;;;;;;;;;;;;;;;;5072300;28;1169;-76
2022/06/05 17:03:41;;;;;;;;;;;;;;;;;;5070409;28;1365;-75
2022/06/05 17:06:26;;;;;;;;;;;;;;;;;;5070770;28;1403;-76
2022/06/05 17:08:57;;;;;;;;;;;;;;;;;;5067743;28;1420;-74
2022/06/05 17:11:26;;;;;;;;;;;;;;;;;;5055199;28;1987;-75
2022/06/05 17:13:52;;;;;;;;;;;;;;;;;;5052907;28;1477;-75
2022/06/05 17:16:26;;;;;;;;;;;;;;;;;;5058719;28;1516;-75
2022/06/05 17:18:53;;;;;;;;;;;;;;;;;;5069952;28;1087;-75
2022/06/05 17:21:20;;;;;;;;;;;;;;;;;;5068587;28;1507;-75
2022/06/05 17:23:50;;;;;;;;;;;;;;;;;;5069848;28;1085;-74
2022/06/05 17:26:22;;;;;;;;;;;;;;;;;;5069778;28;1322;-75
2022/06/05 17:28:55;;;;;;;;;;;;;;;;;;5068793;28;1230;-74
2022/06/05 17:31:24;;;;;;;;;;;;;;;;;;5067709;28;1914;-74
2022/06/05 17:33:53;;;;;;;;;;;;;;;;;;5066360;28;1572;-75